<?xml version="1.0" encoding="UTF-8" standalone="no" ?>
<gpx xmlns="http://www.topografix.com/GPX/1/1" xmlns:xsi="http://www.w3.org/2001/XMLSchema-instance" xsi:schemaLocation="http://www.topografix.com/GPX/1/1 http://www.topografix.com/GPX/1/1/gpx.xsd" version="1.1" creator="VisuGPX - https://www.visugpx.com">
  <metadata>
    <name>12582366-Montbard-Le Pavé</name>
  </metadata>
  <trk>
    <name><![CDATA[12582366-Montbard-Le Pavé]]></name>
    <trkseg>
      <trkpt lat="45.13713" lon="4.73336">
        <ele>435</ele>
        <time>2021-02-22T16:46:16Z</time>
      </trkpt>
      <trkpt lat="45.13697" lon="4.73249">
        <ele>436</ele>
        <time>2021-02-22T16:47:07Z</time>
      </trkpt>
      <trkpt lat="45.13662" lon="4.73296">
        <ele>439</ele>
        <time>2021-02-22T16:47:45Z</time>
      </trkpt>
      <trkpt lat="45.13598" lon="4.73072">
        <ele>442</ele>
        <time>2021-02-22T16:50:02Z</time>
      </trkpt>
      <trkpt lat="45.13471" lon="4.73036">
        <ele>445</ele>
        <time>2021-02-22T16:51:46Z</time>
      </trkpt>
      <trkpt lat="45.1341" lon="4.73022">
        <ele>443</ele>
        <time>2021-02-22T16:52:35Z</time>
      </trkpt>
      <trkpt lat="45.13405" lon="4.72939">
        <ele>436</ele>
        <time>2021-02-22T16:53:22Z</time>
      </trkpt>
      <trkpt lat="45.13318" lon="4.73004">
        <ele>441</ele>
        <time>2021-02-22T16:54:41Z</time>
      </trkpt>
      <trkpt lat="45.13242" lon="4.73011">
        <ele>443</ele>
        <time>2021-02-22T16:55:42Z</time>
      </trkpt>
      <trkpt lat="45.13234" lon="4.72903">
        <ele>440</ele>
        <time>2021-02-22T16:56:43Z</time>
      </trkpt>
      <trkpt lat="45.13234" lon="4.72643">
        <ele>451</ele>
        <time>2021-02-22T16:59:10Z</time>
      </trkpt>
      <trkpt lat="45.13425" lon="4.72672">
        <ele>437</ele>
        <time>2021-02-22T17:01:44Z</time>
      </trkpt>
      <trkpt lat="45.13478" lon="4.72589">
        <ele>437</ele>
        <time>2021-02-22T17:02:47Z</time>
      </trkpt>
      <trkpt lat="45.13598" lon="4.72524">
        <ele>432</ele>
        <time>2021-02-22T17:04:30Z</time>
      </trkpt>
      <trkpt lat="45.13761" lon="4.72365">
        <ele>404</ele>
        <time>2021-02-22T17:07:08Z</time>
      </trkpt>
      <trkpt lat="45.13927" lon="4.72636">
        <ele>408</ele>
        <time>2021-02-22T17:10:31Z</time>
      </trkpt>
      <trkpt lat="45.14044" lon="4.72737">
        <ele>404</ele>
        <time>2021-02-22T17:12:21Z</time>
      </trkpt>
      <trkpt lat="45.14069" lon="4.7282">
        <ele>400</ele>
        <time>2021-02-22T17:13:12Z</time>
      </trkpt>
      <trkpt lat="45.13906" lon="4.72852">
        <ele>408</ele>
        <time>2021-02-22T17:15:23Z</time>
      </trkpt>
      <trkpt lat="45.14016" lon="4.72906">
        <ele>402</ele>
        <time>2021-02-22T17:16:57Z</time>
      </trkpt>
      <trkpt lat="45.14123" lon="4.72946">
        <ele>399</ele>
        <time>2021-02-22T17:18:25Z</time>
      </trkpt>
      <trkpt lat="45.14061" lon="4.72989">
        <ele>403</ele>
        <time>2021-02-22T17:19:21Z</time>
      </trkpt>
      <trkpt lat="45.14135" lon="4.73051">
        <ele>408</ele>
        <time>2021-02-22T17:20:29Z</time>
      </trkpt>
      <trkpt lat="45.14207" lon="4.73083">
        <ele>407</ele>
        <time>2021-02-22T17:21:30Z</time>
      </trkpt>
      <trkpt lat="45.1426" lon="4.73184">
        <ele>403</ele>
        <time>2021-02-22T17:22:41Z</time>
      </trkpt>
      <trkpt lat="45.14357" lon="4.73116">
        <ele>399</ele>
        <time>2021-02-22T17:24:08Z</time>
      </trkpt>
      <trkpt lat="45.14336" lon="4.73025">
        <ele>398</ele>
        <time>2021-02-22T17:25:02Z</time>
      </trkpt>
      <trkpt lat="45.14459" lon="4.73061">
        <ele>411</ele>
        <time>2021-02-22T17:26:42Z</time>
      </trkpt>
      <trkpt lat="45.14744" lon="4.73148">
        <ele>410</ele>
        <time>2021-02-22T17:30:36Z</time>
      </trkpt>
      <trkpt lat="45.14683" lon="4.73321">
        <ele>404</ele>
        <time>2021-02-22T17:32:25Z</time>
      </trkpt>
      <trkpt lat="45.14736" lon="4.7344">
        <ele>398</ele>
        <time>2021-02-22T17:33:44Z</time>
      </trkpt>
      <trkpt lat="45.14721" lon="4.73581">
        <ele>388</ele>
        <time>2021-02-22T17:35:05Z</time>
      </trkpt>
      <trkpt lat="45.1484" lon="4.73697">
        <ele>378</ele>
        <time>2021-02-22T17:37:00Z</time>
      </trkpt>
      <trkpt lat="45.14873" lon="4.7365">
        <ele>381</ele>
        <time>2021-02-22T17:37:38Z</time>
      </trkpt>
      <trkpt lat="45.14969" lon="4.73693">
        <ele>383</ele>
        <time>2021-02-22T17:38:58Z</time>
      </trkpt>
      <trkpt lat="45.14962" lon="4.73659">
        <ele>385</ele>
        <time>2021-02-22T17:39:18Z</time>
      </trkpt>
      <trkpt lat="45.15086" lon="4.73685">
        <ele>400</ele>
        <time>2021-02-22T17:40:59Z</time>
      </trkpt>
      <trkpt lat="45.15285" lon="4.73749">
        <ele>416</ele>
        <time>2021-02-22T17:43:42Z</time>
      </trkpt>
      <trkpt lat="45.15388" lon="4.73809">
        <ele>424</ele>
        <time>2021-02-22T17:45:11Z</time>
      </trkpt>
      <trkpt lat="45.15425" lon="4.7371">
        <ele>426</ele>
        <time>2021-02-22T17:46:15Z</time>
      </trkpt>
      <trkpt lat="45.15472" lon="4.7362">
        <ele>429</ele>
        <time>2021-02-22T17:47:18Z</time>
      </trkpt>
      <trkpt lat="45.15517" lon="4.7368">
        <ele>431</ele>
        <time>2021-02-22T17:48:07Z</time>
      </trkpt>
      <trkpt lat="45.15508" lon="4.73865">
        <ele>426</ele>
        <time>2021-02-22T17:49:52Z</time>
      </trkpt>
      <trkpt lat="45.15629" lon="4.73882">
        <ele>428</ele>
        <time>2021-02-22T17:51:29Z</time>
      </trkpt>
      <trkpt lat="45.15686" lon="4.73959">
        <ele>433</ele>
        <time>2021-02-22T17:52:32Z</time>
      </trkpt>
      <trkpt lat="45.15741" lon="4.74004">
        <ele>443</ele>
        <time>2021-02-22T17:53:23Z</time>
      </trkpt>
      <trkpt lat="45.15764" lon="4.74036">
        <ele>445</ele>
        <time>2021-02-22T17:53:49Z</time>
      </trkpt>
      <trkpt lat="45.15845" lon="4.74009">
        <ele>451</ele>
        <time>2021-02-22T17:54:56Z</time>
      </trkpt>
      <trkpt lat="45.15883" lon="4.73968">
        <ele>454</ele>
        <time>2021-02-22T17:55:34Z</time>
      </trkpt>
      <trkpt lat="45.15848" lon="4.73773">
        <ele>450</ele>
        <time>2021-02-22T17:57:28Z</time>
      </trkpt>
      <trkpt lat="45.15942" lon="4.73657">
        <ele>448</ele>
        <time>2021-02-22T17:59:07Z</time>
      </trkpt>
      <trkpt lat="45.16034" lon="4.73624">
        <ele>445</ele>
        <time>2021-02-22T18:00:23Z</time>
      </trkpt>
      <trkpt lat="45.16124" lon="4.73517">
        <ele>443</ele>
        <time>2021-02-22T18:01:57Z</time>
      </trkpt>
      <trkpt lat="45.16124" lon="4.7329">
        <ele>438</ele>
        <time>2021-02-22T18:04:05Z</time>
      </trkpt>
      <trkpt lat="45.16099" lon="4.73116">
        <ele>434</ele>
        <time>2021-02-22T18:05:46Z</time>
      </trkpt>
      <trkpt lat="45.16081" lon="4.73004">
        <ele>433</ele>
        <time>2021-02-22T18:06:51Z</time>
      </trkpt>
      <trkpt lat="45.16096" lon="4.72979">
        <ele>432</ele>
        <time>2021-02-22T18:07:09Z</time>
      </trkpt>
      <trkpt lat="45.16169" lon="4.72987">
        <ele>433</ele>
        <time>2021-02-22T18:08:08Z</time>
      </trkpt>
      <trkpt lat="45.16252" lon="4.72974">
        <ele>433</ele>
        <time>2021-02-22T18:09:15Z</time>
      </trkpt>
      <trkpt lat="45.16349" lon="4.73015">
        <ele>429</ele>
        <time>2021-02-22T18:10:36Z</time>
      </trkpt>
      <trkpt lat="45.16393" lon="4.72949">
        <ele>423</ele>
        <time>2021-02-22T18:11:27Z</time>
      </trkpt>
      <trkpt lat="45.16422" lon="4.72998">
        <ele>420</ele>
        <time>2021-02-22T18:12:03Z</time>
      </trkpt>
      <trkpt lat="45.16529" lon="4.73097">
        <ele>409</ele>
        <time>2021-02-22T18:13:45Z</time>
      </trkpt>
      <trkpt lat="45.16534" lon="4.73161">
        <ele>411</ele>
        <time>2021-02-22T18:14:22Z</time>
      </trkpt>
      <trkpt lat="45.1657" lon="4.73195">
        <ele>412</ele>
        <time>2021-02-22T18:14:56Z</time>
      </trkpt>
      <trkpt lat="45.16596" lon="4.73144">
        <ele>404</ele>
        <time>2021-02-22T18:15:32Z</time>
      </trkpt>
      <trkpt lat="45.1668" lon="4.73088">
        <ele>393</ele>
        <time>2021-02-22T18:16:46Z</time>
      </trkpt>
      <trkpt lat="45.16768" lon="4.73161">
        <ele>393</ele>
        <time>2021-02-22T18:18:08Z</time>
      </trkpt>
      <trkpt lat="45.16792" lon="4.73133">
        <ele>386</ele>
        <time>2021-02-22T18:18:33Z</time>
      </trkpt>
      <trkpt lat="45.16863" lon="4.73155">
        <ele>380</ele>
        <time>2021-02-22T18:19:31Z</time>
      </trkpt>
      <trkpt lat="45.16871" lon="4.73247">
        <ele>375</ele>
        <time>2021-02-22T18:20:23Z</time>
      </trkpt>
      <trkpt lat="45.16865" lon="4.73311">
        <ele>378</ele>
        <time>2021-02-22T18:21:00Z</time>
      </trkpt>
      <trkpt lat="45.16968" lon="4.73333">
        <ele>360</ele>
        <time>2021-02-22T18:22:23Z</time>
      </trkpt>
      <trkpt lat="45.16978" lon="4.73442">
        <ele>360</ele>
        <time>2021-02-22T18:23:25Z</time>
      </trkpt>
      <trkpt lat="45.17069" lon="4.73444">
        <ele>343</ele>
        <time>2021-02-22T18:24:38Z</time>
      </trkpt>
      <trkpt lat="45.17149" lon="4.73408">
        <ele>329</ele>
        <time>2021-02-22T18:25:45Z</time>
      </trkpt>
      <trkpt lat="45.17222" lon="4.73423">
        <ele>323</ele>
        <time>2021-02-22T18:26:44Z</time>
      </trkpt>
      <trkpt lat="45.17242" lon="4.73468">
        <ele>321</ele>
        <time>2021-02-22T18:27:14Z</time>
      </trkpt>
      <trkpt lat="45.1731" lon="4.735">
        <ele>314</ele>
        <time>2021-02-22T18:28:12Z</time>
      </trkpt>
      <trkpt lat="45.17343" lon="4.73526">
        <ele>310</ele>
        <time>2021-02-22T18:28:42Z</time>
      </trkpt>
      <trkpt lat="45.17307" lon="4.73586">
        <ele>316</ele>
        <time>2021-02-22T18:29:26Z</time>
      </trkpt>
      <trkpt lat="45.17289" lon="4.73648">
        <ele>323</ele>
        <time>2021-02-22T18:30:04Z</time>
      </trkpt>
      <trkpt lat="45.17379" lon="4.73631">
        <ele>313</ele>
        <time>2021-02-22T18:31:17Z</time>
      </trkpt>
      <trkpt lat="45.1744" lon="4.7365">
        <ele>309</ele>
        <time>2021-02-22T18:32:07Z</time>
      </trkpt>
      <trkpt lat="45.17508" lon="4.73738">
        <ele>313</ele>
        <time>2021-02-22T18:33:21Z</time>
      </trkpt>
      <trkpt lat="45.17564" lon="4.73837">
        <ele>317</ele>
        <time>2021-02-22T18:34:32Z</time>
      </trkpt>
      <trkpt lat="45.17618" lon="4.73908">
        <ele>317</ele>
        <time>2021-02-22T18:35:31Z</time>
      </trkpt>
      <trkpt lat="45.17697" lon="4.73921">
        <ele>310</ele>
        <time>2021-02-22T18:36:35Z</time>
      </trkpt>
      <trkpt lat="45.17705" lon="4.73979">
        <ele>319</ele>
        <time>2021-02-22T18:37:08Z</time>
      </trkpt>
      <trkpt lat="45.17718" lon="4.73991">
        <ele>321</ele>
        <time>2021-02-22T18:37:21Z</time>
      </trkpt>
      <trkpt lat="45.17748" lon="4.73921">
        <ele>312</ele>
        <time>2021-02-22T18:38:07Z</time>
      </trkpt>
      <trkpt lat="45.17838" lon="4.73845">
        <ele>312</ele>
        <time>2021-02-22T18:39:31Z</time>
      </trkpt>
      <trkpt lat="45.17898" lon="4.73891">
        <ele>324</ele>
        <time>2021-02-22T18:40:25Z</time>
      </trkpt>
      <trkpt lat="45.17901" lon="4.73953">
        <ele>333</ele>
        <time>2021-02-22T18:41:00Z</time>
      </trkpt>
      <trkpt lat="45.17875" lon="4.73972">
        <ele>333</ele>
        <time>2021-02-22T18:41:24Z</time>
      </trkpt>
      <trkpt lat="45.17875" lon="4.74109">
        <ele>344</ele>
        <time>2021-02-22T18:42:41Z</time>
      </trkpt>
      <trkpt lat="45.17894" lon="4.74169">
        <ele>349</ele>
        <time>2021-02-22T18:43:18Z</time>
      </trkpt>
      <trkpt lat="45.17847" lon="4.74215">
        <ele>359</ele>
        <time>2021-02-22T18:44:04Z</time>
      </trkpt>
      <trkpt lat="45.17751" lon="4.74245">
        <ele>367</ele>
        <time>2021-02-22T18:45:23Z</time>
      </trkpt>
      <trkpt lat="45.17695" lon="4.74264">
        <ele>370</ele>
        <time>2021-02-22T18:46:09Z</time>
      </trkpt>
      <trkpt lat="45.17643" lon="4.7423">
        <ele>366</ele>
        <time>2021-02-22T18:46:55Z</time>
      </trkpt>
      <trkpt lat="45.17573" lon="4.74163">
        <ele>362</ele>
        <time>2021-02-22T18:48:02Z</time>
      </trkpt>
      <trkpt lat="45.17514" lon="4.74116">
        <ele>362</ele>
        <time>2021-02-22T18:48:56Z</time>
      </trkpt>
      <trkpt lat="45.17511" lon="4.74015">
        <ele>353</ele>
        <time>2021-02-22T18:49:53Z</time>
      </trkpt>
      <trkpt lat="45.17428" lon="4.73974">
        <ele>363</ele>
        <time>2021-02-22T18:51:04Z</time>
      </trkpt>
      <trkpt lat="45.17363" lon="4.73963">
        <ele>366</ele>
        <time>2021-02-22T18:51:56Z</time>
      </trkpt>
      <trkpt lat="45.17325" lon="4.74013">
        <ele>372</ele>
        <time>2021-02-22T18:52:38Z</time>
      </trkpt>
      <trkpt lat="45.1732" lon="4.74062">
        <ele>376</ele>
        <time>2021-02-22T18:53:06Z</time>
      </trkpt>
      <trkpt lat="45.17296" lon="4.74109">
        <ele>376</ele>
        <time>2021-02-22T18:53:38Z</time>
      </trkpt>
      <trkpt lat="45.17281" lon="4.74185">
        <ele>379</ele>
        <time>2021-02-22T18:54:23Z</time>
      </trkpt>
      <trkpt lat="45.17266" lon="4.7426">
        <ele>384</ele>
        <time>2021-02-22T18:55:07Z</time>
      </trkpt>
      <trkpt lat="45.17231" lon="4.74309">
        <ele>389</ele>
        <time>2021-02-22T18:55:46Z</time>
      </trkpt>
      <trkpt lat="45.17181" lon="4.74337">
        <ele>396</ele>
        <time>2021-02-22T18:56:29Z</time>
      </trkpt>
      <trkpt lat="45.17149" lon="4.7436">
        <ele>400</ele>
        <time>2021-02-22T18:56:58Z</time>
      </trkpt>
      <trkpt lat="45.17084" lon="4.7435">
        <ele>403</ele>
        <time>2021-02-22T18:57:50Z</time>
      </trkpt>
      <trkpt lat="45.16995" lon="4.74386">
        <ele>407</ele>
        <time>2021-02-22T18:59:05Z</time>
      </trkpt>
      <trkpt lat="45.16927" lon="4.74406">
        <ele>412</ele>
        <time>2021-02-22T19:00:00Z</time>
      </trkpt>
      <trkpt lat="45.16873" lon="4.74365">
        <ele>416</ele>
        <time>2021-02-22T19:00:49Z</time>
      </trkpt>
      <trkpt lat="45.16823" lon="4.74345">
        <ele>420</ele>
        <time>2021-02-22T19:01:31Z</time>
      </trkpt>
      <trkpt lat="45.16786" lon="4.74391">
        <ele>429</ele>
        <time>2021-02-22T19:02:10Z</time>
      </trkpt>
      <trkpt lat="45.16735" lon="4.74397">
        <ele>440</ele>
        <time>2021-02-22T19:02:51Z</time>
      </trkpt>
      <trkpt lat="45.16794" lon="4.74532">
        <ele>444</ele>
        <time>2021-02-22T19:04:21Z</time>
      </trkpt>
      <trkpt lat="45.1685" lon="4.74618">
        <ele>440</ele>
        <time>2021-02-22T19:05:27Z</time>
      </trkpt>
      <trkpt lat="45.16803" lon="4.74612">
        <ele>444</ele>
        <time>2021-02-22T19:06:05Z</time>
      </trkpt>
      <trkpt lat="45.16804" lon="4.7459">
        <ele>447</ele>
        <time>2021-02-22T19:06:17Z</time>
      </trkpt>
      <trkpt lat="45.16749" lon="4.74557">
        <ele>453</ele>
        <time>2021-02-22T19:07:05Z</time>
      </trkpt>
      <trkpt lat="45.16684" lon="4.7446">
        <ele>456</ele>
        <time>2021-02-22T19:08:21Z</time>
      </trkpt>
      <trkpt lat="45.16636" lon="4.74404">
        <ele>461</ele>
        <time>2021-02-22T19:09:10Z</time>
      </trkpt>
      <trkpt lat="45.16583" lon="4.74342">
        <ele>472</ele>
        <time>2021-02-22T19:10:05Z</time>
      </trkpt>
      <trkpt lat="45.16511" lon="4.74323">
        <ele>480</ele>
        <time>2021-02-22T19:11:04Z</time>
      </trkpt>
      <trkpt lat="45.16489" lon="4.74303">
        <ele>482</ele>
        <time>2021-02-22T19:11:25Z</time>
      </trkpt>
      <trkpt lat="45.16464" lon="4.74272">
        <ele>486</ele>
        <time>2021-02-22T19:11:51Z</time>
      </trkpt>
      <trkpt lat="45.16398" lon="4.74252">
        <ele>490</ele>
        <time>2021-02-22T19:12:45Z</time>
      </trkpt>
      <trkpt lat="45.16338" lon="4.74205">
        <ele>494</ele>
        <time>2021-02-22T19:13:40Z</time>
      </trkpt>
      <trkpt lat="45.16273" lon="4.74162">
        <ele>504</ele>
        <time>2021-02-22T19:14:38Z</time>
      </trkpt>
      <trkpt lat="45.16213" lon="4.74137">
        <ele>507</ele>
        <time>2021-02-22T19:15:28Z</time>
      </trkpt>
      <trkpt lat="45.16281" lon="4.74151">
        <ele>505</ele>
        <time>2021-02-22T19:16:23Z</time>
      </trkpt>
      <trkpt lat="45.16369" lon="4.74208">
        <ele>492</ele>
        <time>2021-02-22T19:17:40Z</time>
      </trkpt>
      <trkpt lat="45.16345" lon="4.74146">
        <ele>501</ele>
        <time>2021-02-22T19:18:20Z</time>
      </trkpt>
      <trkpt lat="45.16321" lon="4.74084">
        <ele>503</ele>
        <time>2021-02-22T19:19:00Z</time>
      </trkpt>
      <trkpt lat="45.16293" lon="4.74009">
        <ele>494</ele>
        <time>2021-02-22T19:19:48Z</time>
      </trkpt>
      <trkpt lat="45.16252" lon="4.73959">
        <ele>489</ele>
        <time>2021-02-22T19:20:31Z</time>
      </trkpt>
      <trkpt lat="45.16199" lon="4.73931">
        <ele>484</ele>
        <time>2021-02-22T19:21:17Z</time>
      </trkpt>
      <trkpt lat="45.16109" lon="4.7396">
        <ele>482</ele>
        <time>2021-02-22T19:22:31Z</time>
      </trkpt>
      <trkpt lat="45.16082" lon="4.73922">
        <ele>475</ele>
        <time>2021-02-22T19:23:01Z</time>
      </trkpt>
      <trkpt lat="45.16014" lon="4.73926">
        <ele>468</ele>
        <time>2021-02-22T19:23:56Z</time>
      </trkpt>
      <trkpt lat="45.15928" lon="4.7396">
        <ele>459</ele>
        <time>2021-02-22T19:25:07Z</time>
      </trkpt>
      <trkpt lat="45.15883" lon="4.73989">
        <ele>454</ele>
        <time>2021-02-22T19:25:47Z</time>
      </trkpt>
      <trkpt lat="45.15863" lon="4.74013">
        <ele>452</ele>
        <time>2021-02-22T19:26:08Z</time>
      </trkpt>
      <trkpt lat="45.1588" lon="4.7408">
        <ele>453</ele>
        <time>2021-02-22T19:26:48Z</time>
      </trkpt>
      <trkpt lat="45.15904" lon="4.74174">
        <ele>449</ele>
        <time>2021-02-22T19:27:44Z</time>
      </trkpt>
      <trkpt lat="45.15931" lon="4.74221">
        <ele>447</ele>
        <time>2021-02-22T19:28:18Z</time>
      </trkpt>
      <trkpt lat="45.1597" lon="4.74307">
        <ele>443</ele>
        <time>2021-02-22T19:29:16Z</time>
      </trkpt>
      <trkpt lat="45.16015" lon="4.74417">
        <ele>436</ele>
        <time>2021-02-22T19:30:28Z</time>
      </trkpt>
      <trkpt lat="45.16066" lon="4.74497">
        <ele>435</ele>
        <time>2021-02-22T19:31:29Z</time>
      </trkpt>
      <trkpt lat="45.16127" lon="4.74572">
        <ele>434</ele>
        <time>2021-02-22T19:32:34Z</time>
      </trkpt>
      <trkpt lat="45.16166" lon="4.74671">
        <ele>434</ele>
        <time>2021-02-22T19:33:38Z</time>
      </trkpt>
      <trkpt lat="45.16126" lon="4.74695">
        <ele>431</ele>
        <time>2021-02-22T19:34:12Z</time>
      </trkpt>
      <trkpt lat="45.16062" lon="4.74671">
        <ele>426</ele>
        <time>2021-02-22T19:35:05Z</time>
      </trkpt>
      <trkpt lat="45.15988" lon="4.74681">
        <ele>420</ele>
        <time>2021-02-22T19:36:05Z</time>
      </trkpt>
      <trkpt lat="45.15961" lon="4.7473">
        <ele>418</ele>
        <time>2021-02-22T19:36:40Z</time>
      </trkpt>
      <trkpt lat="45.15939" lon="4.74745">
        <ele>415</ele>
        <time>2021-02-22T19:36:59Z</time>
      </trkpt>
      <trkpt lat="45.15932" lon="4.74802">
        <ele>414</ele>
        <time>2021-02-22T19:37:32Z</time>
      </trkpt>
      <trkpt lat="45.15871" lon="4.7486">
        <ele>409</ele>
        <time>2021-02-22T19:38:31Z</time>
      </trkpt>
      <trkpt lat="45.15845" lon="4.74859">
        <ele>406</ele>
        <time>2021-02-22T19:38:52Z</time>
      </trkpt>
      <trkpt lat="45.15828" lon="4.74885">
        <ele>405</ele>
        <time>2021-02-22T19:39:12Z</time>
      </trkpt>
      <trkpt lat="45.15771" lon="4.74866">
        <ele>401</ele>
        <time>2021-02-22T19:39:59Z</time>
      </trkpt>
      <trkpt lat="45.15742" lon="4.74855">
        <ele>399</ele>
        <time>2021-02-22T19:40:23Z</time>
      </trkpt>
      <trkpt lat="45.15716" lon="4.74871">
        <ele>399</ele>
        <time>2021-02-22T19:40:45Z</time>
      </trkpt>
      <trkpt lat="45.15662" lon="4.74854">
        <ele>396</ele>
        <time>2021-02-22T19:41:30Z</time>
      </trkpt>
      <trkpt lat="45.15563" lon="4.74852">
        <ele>397</ele>
        <time>2021-02-22T19:42:49Z</time>
      </trkpt>
      <trkpt lat="45.15496" lon="4.74892">
        <ele>398</ele>
        <time>2021-02-22T19:43:47Z</time>
      </trkpt>
      <trkpt lat="45.15417" lon="4.74889">
        <ele>398</ele>
        <time>2021-02-22T19:44:50Z</time>
      </trkpt>
      <trkpt lat="45.15369" lon="4.74869">
        <ele>399</ele>
        <time>2021-02-22T19:45:31Z</time>
      </trkpt>
      <trkpt lat="45.15345" lon="4.74834">
        <ele>396</ele>
        <time>2021-02-22T19:45:58Z</time>
      </trkpt>
      <trkpt lat="45.15194" lon="4.74787">
        <ele>397</ele>
        <time>2021-02-22T19:48:02Z</time>
      </trkpt>
      <trkpt lat="45.1515" lon="4.74801">
        <ele>399</ele>
        <time>2021-02-22T19:48:38Z</time>
      </trkpt>
      <trkpt lat="45.1513" lon="4.74855">
        <ele>404</ele>
        <time>2021-02-22T19:49:12Z</time>
      </trkpt>
      <trkpt lat="45.14994" lon="4.74775">
        <ele>397</ele>
        <time>2021-02-22T19:51:10Z</time>
      </trkpt>
      <trkpt lat="45.14935" lon="4.74771">
        <ele>394</ele>
        <time>2021-02-22T19:51:58Z</time>
      </trkpt>
      <trkpt lat="45.14903" lon="4.74814">
        <ele>400</ele>
        <time>2021-02-22T19:52:33Z</time>
      </trkpt>
      <trkpt lat="45.14854" lon="4.74863">
        <ele>403</ele>
        <time>2021-02-22T19:53:21Z</time>
      </trkpt>
      <trkpt lat="45.14822" lon="4.74896">
        <ele>405</ele>
        <time>2021-02-22T19:53:53Z</time>
      </trkpt>
      <trkpt lat="45.14835" lon="4.74956">
        <ele>408</ele>
        <time>2021-02-22T19:54:28Z</time>
      </trkpt>
      <trkpt lat="45.1475" lon="4.74907">
        <ele>399</ele>
        <time>2021-02-22T19:55:42Z</time>
      </trkpt>
      <trkpt lat="45.14655" lon="4.74901">
        <ele>394</ele>
        <time>2021-02-22T19:56:58Z</time>
      </trkpt>
      <trkpt lat="45.1456" lon="4.74896">
        <ele>383</ele>
        <time>2021-02-22T19:58:14Z</time>
      </trkpt>
      <trkpt lat="45.14492" lon="4.74919">
        <ele>377</ele>
        <time>2021-02-22T19:59:10Z</time>
      </trkpt>
      <trkpt lat="45.14463" lon="4.74888">
        <ele>370</ele>
        <time>2021-02-22T19:59:39Z</time>
      </trkpt>
      <trkpt lat="45.14465" lon="4.74822">
        <ele>367</ele>
        <time>2021-02-22T20:00:16Z</time>
      </trkpt>
      <trkpt lat="45.14545" lon="4.74732">
        <ele>366</ele>
        <time>2021-02-22T20:01:38Z</time>
      </trkpt>
      <trkpt lat="45.14477" lon="4.7466">
        <ele>361</ele>
        <time>2021-02-22T20:02:46Z</time>
      </trkpt>
      <trkpt lat="45.14417" lon="4.74722">
        <ele>360</ele>
        <time>2021-02-22T20:03:45Z</time>
      </trkpt>
      <trkpt lat="45.14368" lon="4.74791">
        <ele>364</ele>
        <time>2021-02-22T20:04:41Z</time>
      </trkpt>
      <trkpt lat="45.14323" lon="4.7486">
        <ele>364</ele>
        <time>2021-02-22T20:05:34Z</time>
      </trkpt>
      <trkpt lat="45.14318" lon="4.74959">
        <ele>360</ele>
        <time>2021-02-22T20:06:30Z</time>
      </trkpt>
      <trkpt lat="45.14274" lon="4.75016">
        <ele>365</ele>
        <time>2021-02-22T20:07:17Z</time>
      </trkpt>
      <trkpt lat="45.14306" lon="4.75031">
        <ele>365</ele>
        <time>2021-02-22T20:07:44Z</time>
      </trkpt>
      <trkpt lat="45.14333" lon="4.75105">
        <ele>370</ele>
        <time>2021-02-22T20:08:31Z</time>
      </trkpt>
      <trkpt lat="45.14297" lon="4.75136">
        <ele>374</ele>
        <time>2021-02-22T20:09:05Z</time>
      </trkpt>
      <trkpt lat="45.14265" lon="4.75177">
        <ele>379</ele>
        <time>2021-02-22T20:09:40Z</time>
      </trkpt>
      <trkpt lat="45.1416" lon="4.75232">
        <ele>388</ele>
        <time>2021-02-22T20:11:09Z</time>
      </trkpt>
      <trkpt lat="45.14061" lon="4.75286">
        <ele>398</ele>
        <time>2021-02-22T20:12:34Z</time>
      </trkpt>
      <trkpt lat="45.13962" lon="4.75346">
        <ele>409</ele>
        <time>2021-02-22T20:14:00Z</time>
      </trkpt>
      <trkpt lat="45.13873" lon="4.75374">
        <ele>415</ele>
        <time>2021-02-22T20:15:13Z</time>
      </trkpt>
      <trkpt lat="45.13826" lon="4.75372">
        <ele>417</ele>
        <time>2021-02-22T20:15:51Z</time>
      </trkpt>
      <trkpt lat="45.1386" lon="4.75157">
        <ele>414</ele>
        <time>2021-02-22T20:17:56Z</time>
      </trkpt>
      <trkpt lat="45.13794" lon="4.75148">
        <ele>416</ele>
        <time>2021-02-22T20:18:49Z</time>
      </trkpt>
      <trkpt lat="45.13786" lon="4.75103">
        <ele>415</ele>
        <time>2021-02-22T20:19:15Z</time>
      </trkpt>
      <trkpt lat="45.13789" lon="4.75058">
        <ele>413</ele>
        <time>2021-02-22T20:19:40Z</time>
      </trkpt>
      <trkpt lat="45.13755" lon="4.7497">
        <ele>405</ele>
        <time>2021-02-22T20:20:37Z</time>
      </trkpt>
      <trkpt lat="45.13758" lon="4.74943">
        <ele>402</ele>
        <time>2021-02-22T20:20:53Z</time>
      </trkpt>
      <trkpt lat="45.13801" lon="4.74916">
        <ele>402</ele>
        <time>2021-02-22T20:21:30Z</time>
      </trkpt>
      <trkpt lat="45.13703" lon="4.74868">
        <ele>394</ele>
        <time>2021-02-22T20:22:53Z</time>
      </trkpt>
      <trkpt lat="45.13663" lon="4.7479">
        <ele>391</ele>
        <time>2021-02-22T20:23:48Z</time>
      </trkpt>
      <trkpt lat="45.1364" lon="4.74683">
        <ele>398</ele>
        <time>2021-02-22T20:24:51Z</time>
      </trkpt>
      <trkpt lat="45.13557" lon="4.74556">
        <ele>407</ele>
        <time>2021-02-22T20:26:29Z</time>
      </trkpt>
      <trkpt lat="45.13552" lon="4.74501">
        <ele>411</ele>
        <time>2021-02-22T20:27:00Z</time>
      </trkpt>
      <trkpt lat="45.13532" lon="4.74437">
        <ele>414</ele>
        <time>2021-02-22T20:27:39Z</time>
      </trkpt>
      <trkpt lat="45.13557" lon="4.74354">
        <ele>421</ele>
        <time>2021-02-22T20:28:30Z</time>
      </trkpt>
      <trkpt lat="45.13601" lon="4.74231">
        <ele>420</ele>
        <time>2021-02-22T20:29:48Z</time>
      </trkpt>
      <trkpt lat="45.13605" lon="4.74063">
        <ele>419</ele>
        <time>2021-02-22T20:31:23Z</time>
      </trkpt>
      <trkpt lat="45.1345" lon="4.74062">
        <ele>431</ele>
        <time>2021-02-22T20:33:27Z</time>
      </trkpt>
      <trkpt lat="45.13384" lon="4.74107">
        <ele>434</ele>
        <time>2021-02-22T20:34:26Z</time>
      </trkpt>
      <trkpt lat="45.13308" lon="4.74092">
        <ele>434</ele>
        <time>2021-02-22T20:35:27Z</time>
      </trkpt>
      <trkpt lat="45.1326" lon="4.74033">
        <ele>436</ele>
        <time>2021-02-22T20:36:18Z</time>
      </trkpt>
      <trkpt lat="45.13257" lon="4.73986">
        <ele>439</ele>
        <time>2021-02-22T20:36:45Z</time>
      </trkpt>
      <trkpt lat="45.13238" lon="4.73922">
        <ele>441</ele>
        <time>2021-02-22T20:37:24Z</time>
      </trkpt>
      <trkpt lat="45.13227" lon="4.73879">
        <ele>444</ele>
        <time>2021-02-22T20:37:50Z</time>
      </trkpt>
      <trkpt lat="45.13317" lon="4.73784">
        <ele>447</ele>
        <time>2021-02-22T20:39:20Z</time>
      </trkpt>
      <trkpt lat="45.13362" lon="4.73753">
        <ele>446</ele>
        <time>2021-02-22T20:40:00Z</time>
      </trkpt>
      <trkpt lat="45.13476" lon="4.73587">
        <ele>448</ele>
        <time>2021-02-22T20:42:11Z</time>
      </trkpt>
      <trkpt lat="45.13518" lon="4.73483">
        <ele>451</ele>
        <time>2021-02-22T20:43:19Z</time>
      </trkpt>
      <trkpt lat="45.13406" lon="4.73388">
        <ele>457</ele>
        <time>2021-02-22T20:45:03Z</time>
      </trkpt>
      <trkpt lat="45.13434" lon="4.73237">
        <ele>455</ele>
        <time>2021-02-22T20:46:31Z</time>
      </trkpt>
      <trkpt lat="45.13546" lon="4.7307">
        <ele>446</ele>
        <time>2021-02-22T20:48:41Z</time>
      </trkpt>
      <trkpt lat="45.1359" lon="4.73083">
        <ele>444</ele>
        <time>2021-02-22T20:49:17Z</time>
      </trkpt>
      <trkpt lat="45.13646" lon="4.73296">
        <ele>440</ele>
        <time>2021-02-22T20:51:26Z</time>
      </trkpt>
      <trkpt lat="45.13693" lon="4.73265">
        <ele>436</ele>
        <time>2021-02-22T20:52:07Z</time>
      </trkpt>
      <trkpt lat="45.13703" lon="4.73338">
        <ele>436</ele>
        <time>2021-02-22T20:52:49Z</time>
      </trkpt>
    </trkseg>
  </trk>
</gpx>